createdAt,value
2022-12-27T00:14:08.365Z,19.35
2022-12-27T00:26:20.497Z,18.67
2022-12-27T00:32:22.837Z,19.67
2022-12-27T00:38:25.168Z,17.70
2022-12-27T00:44:27.482Z,17.85
2022-12-27T00:50:29.891Z,16.63
2022-12-27T00:56:32.629Z,15.15
2022-12-27T01:02:35.096Z,16.95
2022-12-27T01:08:37.766Z,13.95
2022-12-27T01:14:39.942Z,14.80
2022-12-27T01:20:42.098Z,14.93
2022-12-27T01:26:44.286Z,16.27
2022-12-27T01:32:46.864Z,15.20
2022-12-27T01:38:49.780Z,18.15
2022-12-27T01:44:56.663Z,16.10
2022-12-27T01:51:04.568Z,16.05
2022-12-27T01:57:07.173Z,16.85
2022-12-27T02:03:09.566Z,16.00
2022-12-27T02:15:21.974Z,17.17
2022-12-27T02:21:59.781Z,17.30
2022-12-27T02:28:25.997Z,16.88
2022-12-27T02:34:35.553Z,18.27
2022-12-27T02:40:59.335Z,17.92
2022-12-27T02:47:20.600Z,16.55
2022-12-27T02:53:55.251Z,18.58
2022-12-27T03:00:25.449Z,19.30
2022-12-27T03:06:57.806Z,18.80
2022-12-27T03:13:24.920Z,18.13
2022-12-27T03:20:06.467Z,19.35
2022-12-27T03:26:10.430Z,19.05
2022-12-27T03:32:34.513Z,17.95
2022-12-27T03:38:47.384Z,18.55
2022-12-27T03:44:49.957Z,19.35
2022-12-27T03:57:06.383Z,17.77
2022-12-27T04:03:08.569Z,19.70
2022-12-27T04:09:30.864Z,20.92
2022-12-27T04:15:51.879Z,18.05
2022-12-27T04:22:12.659Z,16.15
2022-12-27T04:28:33.664Z,18.73
2022-12-27T04:34:45.022Z,19.85
2022-12-27T04:41:05.527Z,19.00
2022-12-27T04:47:35.477Z,19.00
2022-12-27T04:53:56.413Z,22.17
2022-12-27T05:00:17.438Z,19.67
2022-12-27T05:06:20.852Z,20.58
2022-12-27T05:12:41.880Z,21.27
2022-12-27T05:18:46.303Z,22.05
2022-12-27T05:25:07.107Z,21.40
2022-12-27T05:31:10.561Z,17.58
2022-12-27T05:37:12.907Z,19.23
2022-12-27T05:43:15.374Z,20.48
2022-12-27T05:55:19.785Z,18.90
2022-12-27T06:01:22.176Z,22.38
2022-12-27T06:07:24.404Z,22.25
2022-12-27T06:13:26.840Z,22.30
2022-12-27T06:19:30.153Z,22.00
2022-12-27T06:25:32.312Z,20.92
2022-12-27T06:31:34.780Z,20.65
2022-12-27T06:37:37.145Z,23.05
2022-12-27T06:43:39.929Z,22.83
2022-12-27T06:49:42.225Z,21.50
2022-12-27T06:55:44.602Z,20.80
2022-12-27T07:01:46.994Z,20.55
2022-12-27T07:07:49.289Z,21.38
2022-12-27T07:13:54.665Z,24.40
2022-12-27T07:19:56.821Z,24.02
2022-12-27T07:26:04.033Z,23.17
2022-12-27T07:32:06.282Z,28.85
2022-12-27T07:38:08.421Z,25.17
2022-12-27T07:44:11.521Z,23.40
2022-12-27T07:50:13.896Z,23.30
2022-12-27T07:56:25.208Z,23.15
2022-12-27T08:02:28.331Z,24.67
2022-12-27T08:08:42.747Z,23.27
2022-12-27T08:14:44.872Z,22.30
2022-12-27T08:20:46.908Z,26.03
2022-12-27T08:26:49.108Z,24.87
2022-12-27T08:32:51.299Z,22.58
2022-12-27T08:38:55.054Z,23.77
2022-12-27T08:44:57.365Z,26.35
2022-12-27T08:51:12.966Z,25.40
2022-12-27T08:57:16.710Z,24.08
2022-12-27T09:03:20.629Z,25.02
2022-12-27T09:09:23.018Z,23.10
2022-12-27T09:15:25.250Z,21.55
2022-12-27T09:21:30.621Z,21.33
2022-12-27T09:27:34.804Z,22.52
2022-12-27T09:33:37.453Z,21.42
2022-12-27T09:39:39.605Z,22.80
2022-12-27T09:45:47.237Z,22.88
2022-12-27T09:51:52.924Z,20.27
2022-12-27T09:58:05.888Z,20.58
2022-12-27T10:04:13.760Z,19.90
2022-12-27T10:10:36.323Z,19.17
2022-12-27T10:16:53.601Z,19.65
2022-12-27T10:23:06.238Z,19.60
2022-12-27T10:35:24.467Z,19.63
2022-12-27T10:41:35.839Z,18.00
2022-12-27T10:47:38.566Z,19.77
2022-12-27T10:53:52.560Z,18.55
2022-12-27T11:00:13.659Z,18.27
2022-12-27T11:06:25.713Z,18.20
2022-12-27T11:12:32.436Z,20.05
2022-12-27T11:18:36.648Z,19.42
2022-12-27T11:24:47.329Z,19.27
2022-12-27T11:31:14.668Z,20.52
2022-12-27T11:37:20.052Z,19.95
2022-12-27T11:43:27.848Z,19.98
2022-12-27T11:49:37.380Z,16.02
2022-12-27T11:56:16.814Z,16.73
2022-12-27T12:02:32.448Z,15.93
2022-12-27T12:08:55.576Z,16.48
2022-12-27T12:15:19.200Z,18.40
2022-12-27T12:21:32.038Z,16.70
2022-12-27T12:28:09.749Z,14.17
2022-12-27T12:34:43.695Z,14.23
2022-12-27T12:40:52.128Z,16.45
2022-12-27T12:47:31.862Z,15.18
2022-12-27T12:53:48.778Z,16.67
2022-12-27T12:59:59.680Z,16.63
2022-12-27T13:06:11.530Z,17.02
2022-12-27T13:12:37.160Z,16.88
2022-12-27T13:19:16.401Z,17.10
2022-12-27T13:25:37.924Z,17.23
2022-12-27T13:31:48.859Z,27.60
2022-12-27T13:38:15.839Z,18.85
2022-12-27T13:44:38.622Z,16.65
2022-12-27T13:50:55.924Z,18.07
2022-12-27T13:57:22.817Z,15.93
2022-12-27T14:03:38.906Z,15.38
2022-12-27T14:10:01.615Z,15.60
2022-12-27T14:16:21.658Z,15.87
2022-12-27T14:22:41.125Z,17.33
2022-12-27T14:29:00.132Z,18.77
2022-12-27T14:35:33.664Z,18.38
2022-12-27T14:42:08.241Z,18.77
2022-12-27T14:48:47.878Z,17.88
2022-12-27T14:55:14.776Z,26.10
2022-12-27T15:01:39.606Z,26.40
2022-12-27T15:08:26.260Z,21.83
2022-12-27T15:14:51.736Z,20.73
2022-12-27T15:21:06.187Z,20.80
2022-12-27T15:27:43.550Z,21.75
2022-12-27T15:33:48.782Z,32.08
2022-12-27T15:39:51.235Z,55.50
2022-12-27T15:45:54.254Z,24.20
2022-12-27T15:52:17.725Z,21.55
2022-12-27T16:04:45.935Z,22.05
2022-12-27T16:10:49.959Z,22.90
2022-12-27T16:16:55.092Z,23.77
2022-12-27T16:23:00.505Z,23.13
2022-12-27T16:29:05.420Z,23.05
2022-12-27T16:35:14.799Z,21.80
2022-12-27T16:41:26.326Z,63.53
2022-12-27T16:47:31.454Z,23.40
2022-12-27T16:54:01.661Z,22.38
2022-12-27T17:00:41.550Z,22.60
2022-12-27T17:06:43.620Z,24.65
2022-12-27T17:12:52.341Z,21.90
2022-12-27T17:19:00.481Z,15.75
2022-12-27T17:25:03.052Z,13.65
2022-12-27T17:31:15.323Z,14.57
2022-12-27T17:37:26.730Z,10.30
2022-12-27T17:44:15.073Z,9.57
2022-12-27T17:50:24.153Z,10.18
2022-12-27T17:56:44.845Z,8.52
2022-12-27T18:02:47.197Z,9.85
2022-12-27T18:08:50.015Z,10.48
2022-12-27T18:21:00.966Z,10.20
2022-12-27T18:27:08.162Z,11.02
2022-12-27T18:33:14.933Z,11.13
2022-12-27T18:39:31.000Z,10.00
2022-12-27T18:45:34.156Z,12.38
2022-12-27T18:51:40.029Z,9.35
2022-12-27T18:57:42.202Z,8.32
2022-12-27T19:03:44.453Z,6.70
2022-12-27T19:09:52.090Z,8.82
2022-12-27T19:15:55.957Z,7.57
2022-12-27T19:21:58.960Z,8.63
2022-12-27T19:28:10.594Z,7.53
2022-12-27T19:34:18.363Z,7.88
2022-12-27T19:40:20.729Z,7.57
2022-12-27T19:46:30.452Z,6.28
2022-12-27T19:52:33.678Z,6.40
2022-12-27T19:58:35.831Z,8.57
2022-12-27T20:04:38.309Z,6.80
2022-12-27T20:10:40.552Z,7.53
2022-12-27T20:16:42.732Z,8.20
2022-12-27T20:22:47.224Z,8.35
2022-12-27T20:28:50.293Z,4.13
2022-12-27T20:34:52.495Z,4.47
2022-12-27T20:40:54.781Z,4.72
2022-12-27T20:46:56.897Z,4.87
2022-12-27T20:52:59.218Z,3.27
2022-12-27T20:59:01.747Z,5.88
2022-12-27T21:05:04.159Z,5.75
2022-12-27T21:11:07.358Z,5.70
2022-12-27T21:17:09.940Z,5.95
2022-12-27T21:23:12.044Z,5.63
2022-12-27T21:29:16.775Z,5.90
2022-12-27T21:35:18.916Z,6.20
2022-12-27T21:41:26.712Z,5.55
2022-12-27T21:47:29.520Z,7.78
2022-12-27T21:59:33.537Z,5.30
2022-12-27T22:05:35.558Z,6.27
2022-12-27T22:11:38.398Z,10.40
2022-12-27T22:17:40.537Z,11.07
2022-12-27T22:23:44.648Z,11.97
2022-12-27T22:29:46.965Z,12.35
2022-12-27T22:35:49.300Z,13.70
2022-12-27T22:41:51.557Z,11.77
2022-12-27T22:47:54.069Z,12.52
2022-12-27T22:53:57.223Z,11.52
2022-12-27T22:59:59.386Z,12.02
2022-12-27T23:06:01.569Z,11.10
2022-12-27T23:12:03.710Z,8.93
2022-12-27T23:18:05.802Z,9.75
2022-12-27T23:24:08.638Z,10.20
2022-12-27T23:30:11.672Z,9.80
2022-12-27T23:36:15.019Z,9.55
2022-12-27T23:42:17.086Z,8.07
2022-12-27T23:48:19.160Z,4.83
2022-12-27T23:54:21.199Z,4.45
